Middlebranch, OH (44652)

8:24 PM EDT on October 01, 2014 (GMT -0400)
The Boroughs | Change Station
CLOSE
Current Station
Personal Weather Station
Location: Uniontown, OH
Elevation: 1125 ft
Nearby Weather Stations

Elev 1125 ft 40.95 °N, 81.42 °W | Updated 8 minutes ago

Clear
Clear
55.9 °F
Feels Like 55.9 °F
N
0.0
Wind Variable Wind from SE
Gusts 0.0 mph

Today
High -- | Low -- °F
--% Chance of Precip.
Yesterday
High -- | Low -- °F
Precip. -- in
7:21 AM 7:07 PM
First Quarter, 52% visible
Pressure 29.95 in
Visibility 10.0 miles
Clouds Mostly Cloudy 3800 ft
Dew Point 54 °F
Humidity 93%
Rainfall 0.00 in
Snow Depth Not available.
UV 0 out of 12
Pollen 1.40 out of 12
Air Quality Not available.
Flu Activity Not available.
METAR KCAK 302351Z 36007KT 10SM BKN038 14/11 A2995 RMK AO2 SLP142 T01440106 10200 20144 53011

More Conditions Fewer Conditions

Pressure 29.95 in
Visibility 10.0 miles
Clouds Mostly Cloudy 3800 ft
Dew Point 54 °F
Humidity 93%
Rainfall 0.00 in
Snow Depth Not available.
UV 0 out of 12
Pollen 1.40 out of 12
Air Quality Not available.
Flu Activity Not available.
METAR KCAK 302351Z 36007KT 10SM BKN038 14/11 A2995 RMK AO2 SLP142 T01440106 10200 20144 53011

More Conditions Fewer Conditions

10-Day Weather Forecast

Almanac

Astronomy

Oct. 01, 2014 Rise Set
Actual Time 7:21 AM EDT 7:07 PM EDT
Civil Twilight 6:54 AM EDT 7:34 PM EDT
Nautical Twilight 6:22 AM EDT 8:06 PM EDT
Astronomical Twilight 5:50 AM EDT 8:38 PM EDT
Moon 2:23 PM EDT (10/1) No Moon Set
Length of Visible Light 12h 40m
Length of Day
11h 45m
Tomorrow will be 2m 41s shorter.
First Quarter, 52% of the Moon is Illuminated
Today
First Quarter
Oct 8
Full
Oct 15
Last Quarter
Oct 23
New
Oct 30
First Quarter

Today's Extremes

State Highs State Lows

Community

WunderPhotos

Upload Photos

1,758,097 photos uploaded!

WunderBlogs® & News

Nearby

Snow Depth

Station Depth Elevation
No new snow has been reported.

Earthquake Activity

City Distance Mag. Time & Date
No recent earthquake activity has been reported nearby.
Minimum magnitude displayed is 2.5.

Coastal Water Temperatures

Place Temperature
No Stations Reporting

Nearby Weather Stations